createdAt,value
2022-09-21T00:00:46.461Z,99.90
2022-09-21T00:03:32.510Z,99.90
2022-09-21T00:06:20.884Z,99.90
2022-09-21T00:09:08.237Z,99.90
2022-09-21T00:11:58.145Z,99.90
2022-09-21T00:14:44.758Z,99.90
2022-09-21T00:17:30.702Z,99.90
2022-09-21T00:20:16.744Z,99.90
2022-09-21T00:23:02.869Z,99.90
2022-09-21T00:25:48.893Z,99.90
2022-09-21T00:28:35.129Z,99.90
2022-09-21T00:31:21.839Z,99.90
2022-09-21T00:34:08.898Z,99.90
2022-09-21T00:36:54.869Z,99.90
2022-09-21T00:39:40.951Z,99.90
2022-09-21T00:42:31.385Z,99.90
2022-09-21T00:45:23.367Z,99.90
2022-09-21T00:48:10.184Z,99.90
2022-09-21T00:51:02.296Z,99.90
2022-09-21T00:53:53.682Z,99.90
2022-09-21T00:56:40.170Z,99.90
2022-09-21T00:59:30.063Z,99.90
2022-09-21T01:02:18.279Z,99.90
2022-09-21T01:05:06.925Z,99.90
2022-09-21T01:07:54.298Z,99.90
2022-09-21T01:11:18.901Z,99.90
2022-09-21T01:14:30.949Z,99.90
2022-09-21T01:17:21.814Z,99.90
2022-09-21T01:20:27.004Z,99.90
2022-09-21T01:23:19.401Z,99.90
2022-09-21T01:26:14.302Z,99.90
2022-09-21T01:29:18.809Z,99.90
2022-09-21T01:32:37.273Z,99.90
2022-09-21T01:35:46.825Z,99.90
2022-09-21T01:38:41.372Z,99.90
2022-09-21T01:41:30.356Z,99.90
2022-09-21T01:44:20.703Z,99.90
2022-09-21T01:47:10.646Z,99.90
2022-09-21T01:49:58.812Z,99.90
2022-09-21T01:52:56.824Z,99.90
2022-09-21T01:55:49.847Z,99.90
2022-09-21T01:59:16.757Z,99.90
2022-09-21T02:02:13.052Z,99.90
2022-09-21T02:05:02.669Z,99.90
2022-09-21T02:07:51.007Z,99.90
2022-09-21T02:10:42.848Z,99.90
2022-09-21T02:13:33.237Z,99.90
2022-09-21T02:16:22.253Z,99.90
2022-09-21T02:19:34.494Z,99.90
2022-09-21T02:22:39.462Z,99.90
2022-09-21T02:25:35.348Z,99.90
2022-09-21T02:28:38.323Z,99.90
2022-09-21T02:31:33.922Z,99.90
2022-09-21T02:34:45.680Z,99.90
2022-09-21T02:37:47.646Z,99.90
2022-09-21T02:40:36.927Z,99.90
2022-09-21T02:43:34.111Z,99.90
2022-09-21T02:46:31.603Z,99.90
2022-09-21T02:49:23.158Z,99.90
2022-09-21T02:52:13.453Z,99.90
2022-09-21T02:55:01.809Z,99.90
2022-09-21T02:57:48.565Z,99.90
2022-09-21T03:00:35.852Z,99.90
2022-09-21T03:03:24.774Z,99.90
2022-09-21T03:06:10.987Z,99.90
2022-09-21T03:08:58.588Z,99.90
2022-09-21T03:11:44.760Z,99.90
2022-09-21T03:14:33.071Z,99.90
2022-09-21T03:17:19.887Z,99.90
2022-09-21T03:20:06.400Z,99.90
2022-09-21T03:22:52.429Z,99.90
2022-09-21T03:25:39.235Z,99.90
2022-09-21T03:28:25.536Z,99.90
2022-09-21T03:31:12.300Z,99.90
2022-09-21T03:33:58.745Z,99.90
2022-09-21T03:36:44.608Z,99.90
2022-09-21T03:39:30.819Z,99.90
2022-09-21T03:42:17.058Z,99.90
2022-09-21T03:45:03.014Z,99.90
2022-09-21T03:47:49.074Z,99.90
2022-09-21T03:50:34.936Z,99.90
2022-09-21T03:53:21.012Z,99.90
2022-09-21T03:56:06.989Z,99.90
2022-09-21T03:58:52.994Z,99.90
2022-09-21T04:01:39.000Z,99.90
2022-09-21T04:04:25.456Z,99.90
2022-09-21T04:07:11.274Z,99.90
2022-09-21T04:09:57.166Z,99.90
2022-09-21T04:12:44.183Z,99.90
2022-09-21T04:15:30.542Z,99.90
2022-09-21T04:18:16.806Z,99.90
2022-09-21T04:21:02.849Z,99.90
2022-09-21T04:23:49.769Z,99.90
2022-09-21T04:26:36.626Z,99.90
2022-09-21T04:29:22.713Z,99.90
2022-09-21T04:32:08.673Z,99.90
2022-09-21T04:34:55.202Z,99.90
2022-09-21T04:37:41.200Z,99.90
2022-09-21T04:40:28.185Z,99.90
2022-09-21T04:43:14.245Z,99.90
2022-09-21T04:46:06.176Z,99.90
2022-09-21T04:48:52.022Z,99.90
2022-09-21T04:51:38.098Z,99.90
2022-09-21T04:54:24.219Z,99.90
2022-09-21T04:57:10.333Z,99.90
2022-09-21T04:59:56.320Z,99.90
2022-09-21T05:02:42.351Z,99.90
2022-09-21T05:05:28.412Z,99.90
2022-09-21T05:08:14.484Z,99.90
2022-09-21T05:11:00.620Z,99.90
2022-09-21T05:13:47.961Z,99.90
2022-09-21T05:16:34.488Z,99.90
2022-09-21T05:19:20.860Z,99.90
2022-09-21T05:22:07.221Z,99.90
2022-09-21T05:24:53.571Z,99.90
2022-09-21T05:27:39.481Z,99.90
2022-09-21T05:30:25.872Z,99.90
2022-09-21T05:33:17.002Z,99.90
2022-09-21T05:36:25.034Z,99.90
2022-09-21T05:39:12.028Z,99.90
2022-09-21T05:41:58.136Z,99.90
2022-09-21T05:44:44.744Z,99.90
2022-09-21T05:47:43.051Z,99.90
2022-09-21T05:51:10.158Z,99.90
2022-09-21T05:54:04.447Z,99.90
2022-09-21T05:56:58.870Z,99.90
2022-09-21T06:00:30.291Z,99.90
2022-09-21T06:03:36.763Z,99.90
2022-09-21T06:06:23.015Z,99.90
2022-09-21T06:09:09.286Z,99.90
2022-09-21T06:11:55.250Z,99.90
2022-09-21T06:14:41.325Z,99.90
2022-09-21T06:17:27.487Z,99.90
2022-09-21T06:20:13.645Z,99.90
2022-09-21T06:23:08.094Z,99.90
2022-09-21T06:25:58.179Z,99.90
2022-09-21T06:28:44.881Z,99.90
2022-09-21T06:31:31.205Z,99.90
2022-09-21T06:34:17.917Z,99.90
2022-09-21T06:37:04.232Z,99.90
2022-09-21T06:39:50.381Z,99.90
2022-09-21T06:42:36.411Z,99.90
2022-09-21T06:45:22.505Z,99.90
2022-09-21T06:48:08.836Z,99.90
2022-09-21T06:51:02.159Z,99.90
2022-09-21T06:53:48.658Z,99.90
2022-09-21T06:56:35.681Z,99.90
2022-09-21T06:59:21.809Z,99.90
2022-09-21T07:02:09.431Z,99.90
2022-09-21T07:04:56.832Z,99.90
2022-09-21T07:07:42.714Z,99.90
2022-09-21T07:10:28.650Z,99.90
2022-09-21T07:13:16.268Z,99.90
2022-09-21T07:16:07.150Z,99.90
2022-09-21T07:18:53.236Z,99.90
2022-09-21T07:21:39.623Z,99.90
2022-09-21T07:24:25.814Z,99.90
2022-09-21T07:27:12.053Z,99.90
2022-09-21T07:29:58.139Z,99.90
2022-09-21T07:32:44.378Z,99.90
2022-09-21T07:35:30.960Z,99.90
2022-09-21T07:38:17.440Z,99.90
2022-09-21T07:41:04.145Z,99.90
2022-09-21T07:43:50.434Z,99.90
2022-09-21T07:46:37.063Z,99.90
2022-09-21T07:49:22.968Z,99.90
2022-09-21T07:52:11.176Z,99.90
2022-09-21T07:54:57.393Z,99.90
2022-09-21T07:58:01.900Z,99.90
2022-09-21T08:00:47.781Z,99.90
2022-09-21T08:03:33.805Z,99.90
2022-09-21T08:06:21.069Z,99.90
2022-09-21T08:09:07.357Z,99.90
2022-09-21T08:11:55.703Z,99.90
2022-09-21T08:14:42.941Z,99.90
2022-09-21T08:17:29.938Z,99.90
2022-09-21T08:20:15.713Z,99.80
2022-09-21T08:23:02.309Z,99.60
2022-09-21T08:25:48.544Z,99.40
2022-09-21T08:28:38.733Z,98.90
2022-09-21T08:31:25.628Z,98.80
2022-09-21T08:34:11.405Z,98.70
2022-09-21T08:36:57.334Z,98.20
2022-09-21T08:39:43.311Z,97.60
2022-09-21T08:42:48.707Z,98.00
2022-09-21T08:45:45.439Z,97.70
2022-09-21T08:48:36.947Z,97.30
2022-09-21T08:51:27.032Z,97.00
2022-09-21T08:54:23.367Z,96.50
2022-09-21T08:57:14.280Z,95.70
2022-09-21T09:00:13.476Z,95.80
2022-09-21T09:03:12.345Z,95.30
2022-09-21T09:06:14.838Z,95.00
2022-09-21T09:09:23.689Z,94.40
2022-09-21T09:12:11.233Z,94.50
2022-09-21T09:15:19.131Z,94.50
2022-09-21T09:18:23.220Z,93.90
2022-09-21T09:21:40.785Z,93.30
2022-09-21T09:24:32.968Z,93.60
2022-09-21T09:27:33.913Z,92.60
2022-09-21T09:30:20.024Z,92.80
2022-09-21T09:33:22.572Z,92.50
2022-09-21T09:36:12.699Z,92.00
2022-09-21T09:39:02.638Z,92.20
2022-09-21T09:42:25.982Z,92.70
2022-09-21T09:45:47.064Z,91.90
2022-09-21T09:48:54.075Z,91.70
2022-09-21T09:51:40.819Z,91.90
2022-09-21T09:54:27.908Z,91.90
2022-09-21T09:57:15.543Z,92.50
2022-09-21T10:00:05.771Z,93.00
2022-09-21T10:02:59.414Z,92.60
2022-09-21T10:05:46.183Z,92.20
2022-09-21T10:08:44.535Z,92.10
2022-09-21T10:11:38.562Z,92.60
2022-09-21T10:14:27.299Z,93.00
2022-09-21T10:17:17.357Z,92.20
2022-09-21T10:20:06.317Z,92.50
2022-09-21T10:22:57.106Z,91.90
2022-09-21T10:25:43.512Z,91.10
2022-09-21T10:28:30.329Z,91.80
2022-09-21T10:31:23.684Z,91.20
2022-09-21T10:34:16.555Z,90.60
2022-09-21T10:37:28.728Z,90.60
2022-09-21T10:40:17.746Z,89.00
2022-09-21T10:43:04.560Z,90.20
2022-09-21T10:45:57.956Z,90.40
2022-09-21T10:48:47.647Z,91.00
2022-09-21T10:51:34.856Z,90.20
2022-09-21T10:54:32.877Z,90.20
2022-09-21T10:57:22.005Z,90.30
2022-09-21T11:00:31.926Z,87.20
2022-09-21T11:03:41.593Z,87.00
2022-09-21T11:06:31.798Z,88.40
2022-09-21T11:09:43.603Z,86.90
2022-09-21T11:12:54.214Z,86.90
2022-09-21T11:15:58.040Z,87.10
2022-09-21T11:18:58.763Z,85.50
2022-09-21T11:22:09.629Z,87.10
2022-09-21T11:25:01.705Z,86.70
2022-09-21T11:27:54.530Z,85.70
2022-09-21T11:31:15.235Z,86.10
2022-09-21T11:34:19.511Z,84.00
2022-09-21T11:37:40.902Z,84.80
2022-09-21T11:41:01.796Z,83.60
2022-09-21T11:44:30.301Z,84.40
2022-09-21T11:47:38.502Z,82.60
2022-09-21T11:50:30.603Z,82.50
2022-09-21T11:53:36.186Z,81.20
2022-09-21T11:56:43.424Z,81.10
2022-09-21T12:00:05.930Z,78.30
2022-09-21T12:03:30.968Z,78.70
2022-09-21T12:06:32.655Z,81.30
2022-09-21T12:09:27.058Z,80.20
2022-09-21T12:12:27.190Z,81.60
2022-09-21T12:15:38.355Z,78.40
2022-09-21T12:18:33.209Z,79.00
2022-09-21T12:21:27.561Z,78.50
2022-09-21T12:24:39.705Z,76.20
2022-09-21T12:27:36.873Z,75.30
2022-09-21T12:30:23.479Z,75.80
2022-09-21T12:33:33.569Z,76.30
2022-09-21T12:36:39.484Z,75.70
2022-09-21T12:39:32.865Z,75.00
2022-09-21T12:42:48.822Z,73.90
2022-09-21T12:45:57.324Z,73.90
2022-09-21T12:48:45.181Z,72.80
2022-09-21T12:51:36.453Z,73.70
2022-09-21T12:54:43.460Z,74.00
2022-09-21T12:58:14.169Z,74.20
2022-09-21T13:01:21.156Z,74.40
2022-09-21T13:04:26.381Z,72.00
2022-09-21T13:07:32.683Z,73.10
2022-09-21T13:10:28.632Z,71.40
2022-09-21T13:13:23.412Z,73.30
2022-09-21T13:16:23.855Z,72.40
2022-09-21T13:19:24.734Z,70.50
2022-09-21T13:22:19.054Z,69.90
2022-09-21T13:25:23.910Z,72.10
2022-09-21T13:28:13.470Z,71.00
2022-09-21T13:31:13.794Z,70.00
2022-09-21T13:34:15.930Z,67.30
2022-09-21T13:37:20.439Z,68.20
2022-09-21T13:40:07.010Z,67.80
2022-09-21T13:42:53.735Z,68.20
2022-09-21T13:45:40.103Z,67.90
2022-09-21T13:48:29.568Z,69.40
2022-09-21T13:51:17.635Z,69.20
2022-09-21T13:54:04.917Z,68.30
2022-09-21T13:57:08.567Z,67.50
2022-09-21T14:00:07.688Z,67.50
2022-09-21T14:03:04.149Z,65.00
2022-09-21T14:06:00.673Z,66.70
2022-09-21T14:09:01.989Z,66.80
2022-09-21T14:11:58.305Z,65.80
2022-09-21T14:15:04.746Z,66.70
2022-09-21T14:18:18.301Z,66.70
2022-09-21T14:21:17.265Z,65.50
2022-09-21T14:24:07.621Z,65.70
2022-09-21T14:27:02.371Z,63.90
2022-09-21T14:29:53.167Z,63.60
2022-09-21T14:32:47.377Z,63.80
2022-09-21T14:35:38.417Z,65.10
2022-09-21T14:38:28.593Z,67.40
2022-09-21T14:41:19.793Z,68.10
2022-09-21T14:44:07.476Z,66.90
2022-09-21T14:47:00.275Z,67.00
2022-09-21T14:50:07.578Z,67.30
2022-09-21T14:53:29.324Z,66.10
2022-09-21T14:56:45.945Z,67.50
2022-09-21T15:00:14.320Z,66.90
2022-09-21T15:03:26.271Z,67.80
2022-09-21T15:06:48.258Z,68.00
2022-09-21T15:10:06.945Z,68.00
2022-09-21T15:13:20.159Z,67.40
2022-09-21T15:16:12.798Z,69.00
2022-09-21T15:19:24.696Z,68.50
2022-09-21T15:22:20.906Z,69.80
2022-09-21T15:25:13.382Z,69.60
2022-09-21T15:28:00.423Z,69.20
2022-09-21T15:30:46.682Z,68.90
2022-09-21T15:33:37.880Z,71.00
2022-09-21T15:36:26.890Z,69.80
2022-09-21T15:39:29.456Z,70.30
2022-09-21T15:42:22.424Z,70.30
2022-09-21T15:45:19.151Z,71.30
2022-09-21T15:48:12.646Z,72.10
2022-09-21T15:51:10.437Z,72.90
2022-09-21T15:54:01.588Z,73.40
2022-09-21T15:56:47.899Z,74.30
2022-09-21T15:59:34.686Z,73.70
2022-09-21T16:02:26.891Z,73.30
2022-09-21T16:05:15.526Z,73.80
2022-09-21T16:08:07.119Z,72.20
2022-09-21T16:10:53.602Z,72.60
2022-09-21T16:14:00.518Z,73.10
2022-09-21T16:17:14.916Z,73.50
2022-09-21T16:20:01.131Z,73.20
2022-09-21T16:22:54.820Z,74.20
2022-09-21T16:25:43.033Z,74.70
2022-09-21T16:28:38.484Z,75.30
2022-09-21T16:31:36.160Z,75.20
2022-09-21T16:34:32.841Z,75.60
2022-09-21T16:37:24.626Z,75.00
2022-09-21T16:40:10.831Z,75.80
2022-09-21T16:42:57.219Z,75.90
2022-09-21T16:45:43.827Z,76.40
2022-09-21T16:48:30.265Z,77.20
2022-09-21T16:51:25.215Z,77.30
2022-09-21T16:54:11.618Z,77.90
2022-09-21T16:57:00.899Z,78.30
2022-09-21T16:59:49.517Z,78.40
2022-09-21T17:02:35.642Z,79.20
2022-09-21T17:05:21.770Z,79.30
2022-09-21T17:08:09.358Z,79.50
2022-09-21T17:10:55.798Z,80.00
2022-09-21T17:13:43.139Z,80.50
2022-09-21T17:16:29.094Z,80.90
2022-09-21T17:19:15.905Z,81.10
2022-09-21T17:22:06.845Z,81.40
2022-09-21T17:24:55.453Z,81.70
2022-09-21T17:27:42.326Z,82.10
2022-09-21T17:30:29.578Z,82.20
2022-09-21T17:33:17.919Z,82.20
2022-09-21T17:36:07.871Z,82.70
2022-09-21T17:38:56.396Z,83.20
2022-09-21T17:42:04.839Z,84.10
2022-09-21T17:44:59.593Z,84.70
2022-09-21T17:47:46.505Z,85.60
2022-09-21T17:50:32.817Z,85.60
2022-09-21T17:53:35.147Z,85.80
2022-09-21T17:56:36.642Z,85.90
2022-09-21T17:59:37.487Z,85.80
2022-09-21T18:02:25.875Z,86.40
2022-09-21T18:05:23.966Z,86.60
2022-09-21T18:08:10.485Z,86.90
2022-09-21T18:11:15.134Z,87.00
2022-09-21T18:14:20.308Z,87.50
2022-09-21T18:17:12.614Z,88.10
2022-09-21T18:20:22.604Z,88.20
2022-09-21T18:23:37.438Z,88.20
2022-09-21T18:26:23.773Z,88.50
2022-09-21T18:29:41.169Z,88.60
2022-09-21T18:32:51.153Z,88.80
2022-09-21T18:35:51.073Z,88.90
2022-09-21T18:38:54.860Z,89.00
2022-09-21T18:42:13.411Z,89.40
2022-09-21T18:45:17.228Z,89.50
2022-09-21T18:48:37.259Z,89.30
2022-09-21T18:51:57.952Z,89.50
2022-09-21T18:54:44.257Z,89.70
2022-09-21T18:57:32.350Z,89.90
2022-09-21T19:00:19.292Z,89.80
2022-09-21T19:03:23.603Z,89.90
2022-09-21T19:06:32.672Z,90.00
2022-09-21T19:09:50.815Z,89.60
2022-09-21T19:12:55.573Z,89.80
2022-09-21T19:16:00.849Z,90.00
2022-09-21T19:19:15.351Z,90.20
2022-09-21T19:22:14.390Z,90.60
2022-09-21T19:25:21.638Z,90.80
2022-09-21T19:28:19.711Z,91.00
2022-09-21T19:31:16.775Z,91.20
2022-09-21T19:34:14.617Z,91.20
2022-09-21T19:37:06.973Z,91.10
2022-09-21T19:39:53.907Z,91.10
2022-09-21T19:43:03.282Z,91.10
2022-09-21T19:46:11.933Z,90.80
2022-09-21T19:49:05.250Z,90.90
2022-09-21T19:51:54.212Z,90.90
2022-09-21T19:54:59.331Z,90.80
2022-09-21T19:58:04.395Z,91.10
2022-09-21T20:00:54.192Z,91.30
2022-09-21T20:03:44.693Z,91.20
2022-09-21T20:06:47.761Z,91.20
2022-09-21T20:09:44.700Z,91.20
2022-09-21T20:13:00.416Z,91.20
2022-09-21T20:16:00.725Z,91.50
2022-09-21T20:18:55.554Z,91.90
2022-09-21T20:21:44.404Z,91.70
2022-09-21T20:24:56.807Z,91.80
2022-09-21T20:27:55.913Z,92.20
2022-09-21T20:30:41.947Z,92.20
2022-09-21T20:33:31.406Z,92.40
2022-09-21T20:36:17.771Z,92.50
2022-09-21T20:39:04.164Z,92.70
2022-09-21T20:41:51.893Z,92.20
2022-09-21T20:44:37.918Z,92.20
2022-09-21T20:47:23.854Z,92.20
2022-09-21T20:50:11.907Z,92.30
2022-09-21T20:52:58.387Z,92.30
2022-09-21T20:55:56.494Z,92.40
2022-09-21T20:58:42.748Z,92.60
2022-09-21T21:01:28.852Z,92.90
2022-09-21T21:04:15.178Z,92.60
2022-09-21T21:07:01.194Z,92.60
2022-09-21T21:09:47.097Z,92.90
2022-09-21T21:12:33.067Z,92.80
2022-09-21T21:15:19.008Z,93.00
2022-09-21T21:18:05.204Z,93.10
2022-09-21T21:20:52.317Z,93.00
2022-09-21T21:23:57.229Z,93.20
2022-09-21T21:27:01.378Z,93.40
2022-09-21T21:29:50.319Z,93.50
2022-09-21T21:32:36.959Z,93.50
2022-09-21T21:35:22.951Z,93.70
2022-09-21T21:38:08.791Z,93.80
2022-09-21T21:40:57.986Z,94.30
2022-09-21T21:43:44.041Z,94.20
2022-09-21T21:46:30.015Z,94.30
2022-09-21T21:49:16.954Z,94.30
2022-09-21T21:52:03.136Z,94.20
2022-09-21T21:54:50.149Z,94.60
2022-09-21T21:57:36.413Z,94.80
2022-09-21T22:00:22.309Z,94.90
2022-09-21T22:03:08.149Z,95.10
2022-09-21T22:05:56.077Z,94.90
2022-09-21T22:08:43.139Z,94.70
2022-09-21T22:11:30.895Z,94.60
2022-09-21T22:14:18.195Z,94.50
2022-09-21T22:17:04.482Z,94.60
2022-09-21T22:19:51.343Z,94.70
2022-09-21T22:22:37.614Z,94.90
2022-09-21T22:25:25.346Z,94.80
2022-09-21T22:28:11.544Z,94.90
2022-09-21T22:30:57.980Z,95.00
2022-09-21T22:33:44.550Z,95.20
2022-09-21T22:36:32.830Z,95.40
2022-09-21T22:39:18.962Z,95.50
2022-09-21T22:42:05.272Z,95.50
2022-09-21T22:44:51.362Z,95.70
2022-09-21T22:47:37.322Z,95.70
2022-09-21T22:50:23.377Z,95.90
2022-09-21T22:53:09.306Z,96.60
2022-09-21T22:56:13.651Z,96.90
2022-09-21T22:59:02.184Z,97.00
2022-09-21T23:01:48.024Z,97.10
2022-09-21T23:04:34.221Z,96.70
2022-09-21T23:07:20.549Z,96.40
2022-09-21T23:10:06.954Z,96.50
2022-09-21T23:12:53.726Z,96.20
2022-09-21T23:15:39.901Z,96.20
2022-09-21T23:18:26.608Z,96.40
2022-09-21T23:21:18.976Z,96.10
2022-09-21T23:24:05.415Z,96.00
2022-09-21T23:26:51.605Z,95.90
2022-09-21T23:29:37.630Z,96.00
2022-09-21T23:32:24.822Z,96.10
2022-09-21T23:35:11.070Z,96.00
2022-09-21T23:37:57.399Z,95.80
2022-09-21T23:40:43.791Z,95.90
2022-09-21T23:43:29.863Z,96.20
2022-09-21T23:46:25.146Z,96.20
2022-09-21T23:49:11.677Z,96.50
2022-09-21T23:51:57.921Z,96.80
2022-09-21T23:54:45.325Z,96.40
2022-09-21T23:57:31.414Z,96.80
